sensor_id;sensor_type;location;lat;lon;timestamp;pressure;altitude;pressure_sealevel;temperature;humidity
50105;BME280;47690;39.202;-77.198;2024-01-07T00:02:09;99081.63;;;4.40;65.70
50105;BME280;47690;39.202;-77.198;2024-01-07T00:04:40;99079.97;;;4.34;66.65
50105;BME280;47690;39.202;-77.198;2024-01-07T00:07:10;99068.94;;;4.31;66.55
50105;BME280;47690;39.202;-77.198;2024-01-07T00:09:39;99063.00;;;4.30;66.59
50105;BME280;47690;39.202;-77.198;2024-01-07T00:12:09;99063.84;;;4.31;66.21
50105;BME280;47690;39.202;-77.198;2024-01-07T00:14:37;99063.00;;;4.30;65.86
50105;BME280;47690;39.202;-77.198;2024-01-07T00:17:07;99051.13;;;4.28;66.31
50105;BME280;47690;39.202;-77.198;2024-01-07T00:19:36;99054.56;;;4.25;65.86
50105;BME280;47690;39.202;-77.198;2024-01-07T00:22:06;99057.13;;;4.25;66.17
50105;BME280;47690;39.202;-77.198;2024-01-07T00:24:35;99052.84;;;4.26;65.88
50105;BME280;47690;39.202;-77.198;2024-01-07T00:27:05;99047.78;;;4.22;65.88
50105;BME280;47690;39.202;-77.198;2024-01-07T00:29:34;99050.34;;;4.19;66.04
50105;BME280;47690;39.202;-77.198;2024-01-07T00:32:04;99028.31;;;4.15;66.11
50105;BME280;47690;39.202;-77.198;2024-01-07T00:34:34;99036.78;;;4.16;65.87
50105;BME280;47690;39.202;-77.198;2024-01-07T00:37:03;99042.75;;;4.13;65.76
50105;BME280;47690;39.202;-77.198;2024-01-07T00:39:31;99036.81;;;4.13;66.44
50105;BME280;47690;39.202;-77.198;2024-01-07T00:42:00;99028.34;;;4.10;66.78
50105;BME280;47690;39.202;-77.198;2024-01-07T00:44:29;99022.38;;;4.12;66.06
50105;BME280;47690;39.202;-77.198;2024-01-07T00:46:59;99010.50;;;4.09;66.17
50105;BME280;47690;39.202;-77.198;2024-01-07T00:49:29;99007.97;;;4.10;66.77
50105;BME280;47690;39.202;-77.198;2024-01-07T00:51:59;99004.53;;;4.10;66.57
50105;BME280;47690;39.202;-77.198;2024-01-07T00:54:30;98990.13;;;4.10;66.18
50105;BME280;47690;39.202;-77.198;2024-01-07T00:56:59;98994.34;;;4.10;66.64
50105;BME280;47690;39.202;-77.198;2024-01-07T00:59:30;99009.69;;;4.07;66.65
50105;BME280;47690;39.202;-77.198;2024-01-07T01:02:00;99009.69;;;4.05;66.28
50105;BME280;47690;39.202;-77.198;2024-01-07T01:04:31;99005.41;;;4.06;66.43
50105;BME280;47690;39.202;-77.198;2024-01-07T01:07:00;98996.09;;;4.05;66.75
50105;BME280;47690;39.202;-77.198;2024-01-07T01:09:29;98995.25;;;4.04;66.60
50105;BME280;47690;39.202;-77.198;2024-01-07T01:11:58;98996.94;;;4.04;66.44
50105;BME280;47690;39.202;-77.198;2024-01-07T01:14:28;98990.16;;;4.04;66.82
50105;BME280;47690;39.202;-77.198;2024-01-07T01:16:59;98994.41;;;4.05;66.58
50105;BME280;47690;39.202;-77.198;2024-01-07T01:19:29;98996.94;;;4.05;66.30
50105;BME280;47690;39.202;-77.198;2024-01-07T01:21:59;98997.81;;;4.03;67.09
50105;BME280;47690;39.202;-77.198;2024-01-07T01:24:29;98999.50;;;4.02;66.88
50105;BME280;47690;39.202;-77.198;2024-01-07T01:26:58;99001.22;;;4.00;66.10
50105;BME280;47690;39.202;-77.198;2024-01-07T01:29:29;99003.81;;;3.99;66.59
50105;BME280;47690;39.202;-77.198;2024-01-07T01:32:02;99008.03;;;3.98;66.39
50105;BME280;47690;39.202;-77.198;2024-01-07T01:34:31;99023.31;;;4.01;66.59
50105;BME280;47690;39.202;-77.198;2024-01-07T01:37:00;99020.75;;;4.03;66.49
50105;BME280;47690;39.202;-77.198;2024-01-07T01:39:33;99012.28;;;4.01;67.14
50105;BME280;47690;39.202;-77.198;2024-01-07T01:42:01;99005.47;;;4.03;66.62
50105;BME280;47690;39.202;-77.198;2024-01-07T01:44:34;99010.50;;;4.06;67.24
50105;BME280;47690;39.202;-77.198;2024-01-07T01:47:03;99004.59;;;4.07;66.44
50105;BME280;47690;39.202;-77.198;2024-01-07T01:49:35;99002.03;;;4.07;65.84
50105;BME280;47690;39.202;-77.198;2024-01-07T01:52:05;98993.53;;;4.05;66.24
50105;BME280;47690;39.202;-77.198;2024-01-07T01:54:36;99004.59;;;4.04;66.95
50105;BME280;47690;39.202;-77.198;2024-01-07T01:57:05;99007.19;;;4.01;66.27
50105;BME280;47690;39.202;-77.198;2024-01-07T01:59:34;99000.41;;;4.00;66.59
50105;BME280;47690;39.202;-77.198;2024-01-07T02:02:03;99000.41;;;3.98;65.98
50105;BME280;47690;39.202;-77.198;2024-01-07T02:04:32;99008.03;;;3.98;66.64
50105;BME280;47690;39.202;-77.198;2024-01-07T02:07:02;98996.19;;;3.95;66.72
50105;BME280;47690;39.202;-77.198;2024-01-07T02:09:32;98994.47;;;3.96;66.64
50105;BME280;47690;39.202;-77.198;2024-01-07T02:12:04;98981.75;;;3.93;66.66
50105;BME280;47690;39.202;-77.198;2024-01-07T02:14:33;98977.50;;;3.93;66.41
50105;BME280;47690;39.202;-77.198;2024-01-07T02:17:02;98971.56;;;3.94;67.27
50105;BME280;47690;39.202;-77.198;2024-01-07T02:19:31;98969.00;;;3.93;66.90
50105;BME280;47690;39.202;-77.198;2024-01-07T02:21:59;98966.50;;;3.91;66.72
50105;BME280;47690;39.202;-77.198;2024-01-07T02:24:29;98975.84;;;3.91;66.71
50105;BME280;47690;39.202;-77.198;2024-01-07T02:26:58;98965.66;;;3.89;67.14
50105;BME280;47690;39.202;-77.198;2024-01-07T02:29:32;98965.66;;;3.89;67.15
50105;BME280;47690;39.202;-77.198;2024-01-07T02:32:01;98977.53;;;3.92;67.10
50105;BME280;47690;39.202;-77.198;2024-01-07T02:34:30;98983.47;;;3.89;66.93
50105;BME280;47690;39.202;-77.198;2024-01-07T02:36:59;98990.25;;;3.92;67.11
50105;BME280;47690;39.202;-77.198;2024-01-07T02:39:28;98985.16;;;3.92;66.24
50105;BME280;47690;39.202;-77.198;2024-01-07T02:41:57;98977.53;;;3.92;66.87
50105;BME280;47690;39.202;-77.198;2024-01-07T02:44:29;98971.59;;;3.90;67.51
50105;BME280;47690;39.202;-77.198;2024-01-07T02:46:58;98984.34;;;3.91;66.99
50105;BME280;47690;39.202;-77.198;2024-01-07T02:49:37;98991.13;;;3.91;67.45
50105;BME280;47690;39.202;-77.198;2024-01-07T02:52:18;98978.34;;;3.94;67.46
50105;BME280;47690;39.202;-77.198;2024-01-07T02:55:04;98981.75;;;3.94;66.82
50105;BME280;47690;39.202;-77.198;2024-01-07T02:57:33;98985.97;;;3.97;67.30
50105;BME280;47690;39.202;-77.198;2024-01-07T03:00:02;98993.63;;;3.97;66.92
50105;BME280;47690;39.202;-77.198;2024-01-07T03:02:33;98993.63;;;3.97;66.97
50105;BME280;47690;39.202;-77.198;2024-01-07T03:05:02;98998.72;;;3.99;66.88
50105;BME280;47690;39.202;-77.198;2024-01-07T03:07:32;99001.22;;;4.00;66.62
50105;BME280;47690;39.202;-77.198;2024-01-07T03:10:01;98985.06;;;4.01;67.69
50105;BME280;47690;39.202;-77.198;2024-01-07T03:12:30;98985.06;;;4.04;66.72
50105;BME280;47690;39.202;-77.198;2024-01-07T03:14:59;98992.72;;;4.01;66.21
50105;BME280;47690;39.202;-77.198;2024-01-07T03:17:29;98998.69;;;4.02;67.39
50105;BME280;47690;39.202;-77.198;2024-01-07T03:20:00;98999.50;;;4.04;66.85
50105;BME280;47690;39.202;-77.198;2024-01-07T03:22:29;98998.63;;;4.05;67.47
50105;BME280;47690;39.202;-77.198;2024-01-07T03:24:59;99009.69;;;4.05;66.50
50105;BME280;47690;39.202;-77.198;2024-01-07T03:27:29;99023.28;;;4.03;67.10
50105;BME280;47690;39.202;-77.198;2024-01-07T03:29:59;99030.97;;;4.00;67.07
50105;BME280;47690;39.202;-77.198;2024-01-07T03:32:28;99021.66;;;3.99;66.86
50105;BME280;47690;39.202;-77.198;2024-01-07T03:34:59;99007.19;;;3.99;66.99
50105;BME280;47690;39.202;-77.198;2024-01-07T03:37:29;99001.22;;;4.00;66.84
50105;BME280;47690;39.202;-77.198;2024-01-07T03:39:59;99011.44;;;3.99;66.52
50105;BME280;47690;39.202;-77.198;2024-01-07T03:42:29;99005.50;;;3.98;67.61
50105;BME280;47690;39.202;-77.198;2024-01-07T03:44:59;99002.94;;;3.98;67.00
50105;BME280;47690;39.202;-77.198;2024-01-07T03:47:29;98991.94;;;3.96;67.06
50105;BME280;47690;39.202;-77.198;2024-01-07T03:49:59;98989.34;;;3.97;67.45
50105;BME280;47690;39.202;-77.198;2024-01-07T03:52:29;98995.31;;;3.98;67.09
50105;BME280;47690;39.202;-77.198;2024-01-07T03:54:58;98987.66;;;4.00;66.54
50105;BME280;47690;39.202;-77.198;2024-01-07T03:57:30;98995.31;;;4.00;66.64
50105;BME280;47690;39.202;-77.198;2024-01-07T03:59:59;99004.63;;;3.99;67.01
50105;BME280;47690;39.202;-77.198;2024-01-07T04:02:30;99014.78;;;4.02;66.69
50105;BME280;47690;39.202;-77.198;2024-01-07T04:05:00;99019.03;;;4.05;67.06
50105;BME280;47690;39.202;-77.198;2024-01-07T04:07:29;99020.72;;;4.06;66.56
50105;BME280;47690;39.202;-77.198;2024-01-07T04:09:59;99021.59;;;4.02;67.15
50105;BME280;47690;39.202;-77.198;2024-01-07T04:12:29;99009.72;;;4.01;66.84
50105;BME280;47690;39.202;-77.198;2024-01-07T04:15:01;99004.63;;;3.99;66.96
50105;BME280;47690;39.202;-77.198;2024-01-07T04:17:35;99006.34;;;3.99;67.22
50105;BME280;47690;39.202;-77.198;2024-01-07T04:20:04;99006.31;;;4.00;67.04
50105;BME280;47690;39.202;-77.198;2024-01-07T04:22:34;98999.53;;;3.99;67.35
50105;BME280;47690;39.202;-77.198;2024-01-07T04:25:03;98991.91;;;3.97;67.39
50105;BME280;47690;39.202;-77.198;2024-01-07T04:27:32;98997.03;;;3.96;67.30
50105;BME280;47690;39.202;-77.198;2024-01-07T04:30:01;99007.22;;;3.94;67.78
50105;BME280;47690;39.202;-77.198;2024-01-07T04:32:30;99019.97;;;3.96;67.12
50105;BME280;47690;39.202;-77.198;2024-01-07T04:35:00;99025.03;;;3.99;67.31
50105;BME280;47690;39.202;-77.198;2024-01-07T04:37:30;99034.34;;;4.03;67.50
50105;BME280;47690;39.202;-77.198;2024-01-07T04:39:59;99035.16;;;4.07;67.51
50105;BME280;47690;39.202;-77.198;2024-01-07T04:42:28;99024.06;;;4.11;67.39
50105;BME280;47690;39.202;-77.198;2024-01-07T04:44:58;99026.63;;;4.13;67.38
50105;BME280;47690;39.202;-77.198;2024-01-07T04:47:32;99031.72;;;4.14;67.15
50105;BME280;47690;39.202;-77.198;2024-01-07T04:50:04;99030.81;;;4.18;66.87
50105;BME280;47690;39.202;-77.198;2024-01-07T04:52:33;99019.75;;;4.22;67.27
50105;BME280;47690;39.202;-77.198;2024-01-07T04:55:02;99018.84;;;4.27;66.79
50105;BME280;47690;39.202;-77.198;2024-01-07T04:57:31;99004.34;;;4.30;66.93
50105;BME280;47690;39.202;-77.198;2024-01-07T05:00:00;99000.94;;;4.33;66.33
50105;BME280;47690;39.202;-77.198;2024-01-07T05:02:29;98986.50;;;4.30;66.50
50105;BME280;47690;39.202;-77.198;2024-01-07T05:04:57;99009.44;;;4.32;66.97
50105;BME280;47690;39.202;-77.198;2024-01-07T05:07:27;99015.41;;;4.31;66.74
50105;BME280;47690;39.202;-77.198;2024-01-07T05:09:58;99010.31;;;4.32;66.21
50105;BME280;47690;39.202;-77.198;2024-01-07T05:12:29;98999.25;;;4.32;66.59
50105;BME280;47690;39.202;-77.198;2024-01-07T05:14:59;98989.06;;;4.33;66.52
50105;BME280;47690;39.202;-77.198;2024-01-07T05:17:29;99017.91;;;4.35;66.75
50105;BME280;47690;39.202;-77.198;2024-01-07T05:19:58;99013.72;;;4.30;66.17
50105;BME280;47690;39.202;-77.198;2024-01-07T05:22:30;99026.44;;;4.33;66.58
50105;BME280;47690;39.202;-77.198;2024-01-07T05:25:00;99040.00;;;4.35;66.35
50105;BME280;47690;39.202;-77.198;2024-01-07T05:27:30;99054.47;;;4.36;66.56
50105;BME280;47690;39.202;-77.198;2024-01-07T05:30:01;99048.50;;;4.37;66.18
50105;BME280;47690;39.202;-77.198;2024-01-07T05:32:38;99045.97;;;4.35;66.38
50105;BME280;47690;39.202;-77.198;2024-01-07T05:35:07;99037.44;;;4.35;66.23
50105;BME280;47690;39.202;-77.198;2024-01-07T05:37:36;99040.00;;;4.35;66.03
50105;BME280;47690;39.202;-77.198;2024-01-07T05:40:05;99045.97;;;4.34;65.93
50105;BME280;47690;39.202;-77.198;2024-01-07T05:42:34;99039.19;;;4.33;66.16
50105;BME280;47690;39.202;-77.198;2024-01-07T05:45:03;99037.44;;;4.35;66.31
50105;BME280;47690;39.202;-77.198;2024-01-07T05:47:32;99041.72;;;4.34;66.47
50105;BME280;47690;39.202;-77.198;2024-01-07T05:50:02;99023.06;;;4.32;66.34
50105;BME280;47690;39.202;-77.198;2024-01-07T05:52:31;99025.59;;;4.32;66.41
50105;BME280;47690;39.202;-77.198;2024-01-07T05:54:59;99029.84;;;4.32;65.99
50105;BME280;47690;39.202;-77.198;2024-01-07T05:57:30;99018.78;;;4.33;66.15
50105;BME280;47690;39.202;-77.198;2024-01-07T06:00:00;99021.34;;;4.34;66.25
50105;BME280;47690;39.202;-77.198;2024-01-07T06:06:12;99028.13;;;4.35;66.26
50105;BME280;47690;39.202;-77.198;2024-01-07T06:08:42;99019.59;;;4.35;66.20
50105;BME280;47690;39.202;-77.198;2024-01-07T06:11:11;99026.44;;;4.36;66.49
50105;BME280;47690;39.202;-77.198;2024-01-07T06:13:40;99025.56;;;4.35;66.33
50105;BME280;47690;39.202;-77.198;2024-01-07T06:16:08;99008.53;;;4.37;65.71
50105;BME280;47690;39.202;-77.198;2024-01-07T06:18:37;98998.34;;;4.37;66.19
50105;BME280;47690;39.202;-77.198;2024-01-07T06:21:06;99010.22;;;4.40;66.21
50105;BME280;47690;39.202;-77.198;2024-01-07T06:23:35;99017.00;;;4.41;66.23
50105;BME280;47690;39.202;-77.198;2024-01-07T06:26:05;99002.56;;;4.42;66.13
50105;BME280;47690;39.202;-77.198;2024-01-07T06:28:35;98992.34;;;4.43;66.12
50105;BME280;47690;39.202;-77.198;2024-01-07T06:31:05;98988.94;;;4.44;65.78
50105;BME280;47690;39.202;-77.198;2024-01-07T06:33:36;98985.53;;;4.45;66.85
50105;BME280;47690;39.202;-77.198;2024-01-07T06:36:06;98970.22;;;4.45;66.15
50105;BME280;47690;39.202;-77.198;2024-01-07T06:38:34;98963.41;;;4.46;66.01
50105;BME280;47690;39.202;-77.198;2024-01-07T06:41:03;98969.38;;;4.46;66.79
50105;BME280;47690;39.202;-77.198;2024-01-07T06:43:33;98977.00;;;4.48;66.00
50105;BME280;47690;39.202;-77.198;2024-01-07T06:46:01;98982.09;;;4.48;66.85
50105;BME280;47690;39.202;-77.198;2024-01-07T06:48:30;98980.38;;;4.48;65.67
50105;BME280;47690;39.202;-77.198;2024-01-07T06:50:59;98994.81;;;4.49;66.04
50105;BME280;47690;39.202;-77.198;2024-01-07T06:53:31;99003.38;;;4.45;65.68
50105;BME280;47690;39.202;-77.198;2024-01-07T06:56:00;99032.25;;;4.46;66.41
50105;BME280;47690;39.202;-77.198;2024-01-07T06:58:34;99042.50;;;4.41;66.38
50105;BME280;47690;39.202;-77.198;2024-01-07T07:01:02;99045.09;;;4.40;66.04
50105;BME280;47690;39.202;-77.198;2024-01-07T07:03:33;99048.47;;;4.38;66.50
50105;BME280;47690;39.202;-77.198;2024-01-07T07:06:02;99050.19;;;4.38;66.56
50105;BME280;47690;39.202;-77.198;2024-01-07T07:08:31;99061.22;;;4.38;66.75
50105;BME280;47690;39.202;-77.198;2024-01-07T07:11:01;99054.44;;;4.39;66.70
50105;BME280;47690;39.202;-77.198;2024-01-07T07:13:31;99056.13;;;4.40;66.56
50105;BME280;47690;39.202;-77.198;2024-01-07T07:16:02;99065.44;;;4.41;66.94
50105;BME280;47690;39.202;-77.198;2024-01-07T07:18:32;99078.19;;;4.43;66.63
50105;BME280;47690;39.202;-77.198;2024-01-07T07:21:02;99073.91;;;4.45;66.63
50105;BME280;47690;39.202;-77.198;2024-01-07T07:23:31;99062.00;;;4.48;66.24
50105;BME280;47690;39.202;-77.198;2024-01-07T07:26:00;99052.63;;;4.50;66.25
50105;BME280;47690;39.202;-77.198;2024-01-07T07:28:30;99044.13;;;4.51;65.73
50105;BME280;47690;39.202;-77.198;2024-01-07T07:31:06;99014.38;;;4.50;66.71
50105;BME280;47690;39.202;-77.198;2024-01-07T07:34:03;99010.13;;;4.49;66.53
50105;BME280;47690;39.202;-77.198;2024-01-07T07:36:32;99017.78;;;4.49;66.42
50105;BME280;47690;39.202;-77.198;2024-01-07T07:39:02;99005.91;;;4.47;66.26
50105;BME280;47690;39.202;-77.198;2024-01-07T07:41:31;99015.25;;;4.48;65.83
50105;BME280;47690;39.202;-77.198;2024-01-07T07:44:00;99012.72;;;4.48;66.03
50105;BME280;47690;39.202;-77.198;2024-01-07T07:46:30;99004.19;;;4.47;66.03
50105;BME280;47690;39.202;-77.198;2024-01-07T07:48:59;99008.47;;;4.47;65.65
50105;BME280;47690;39.202;-77.198;2024-01-07T07:51:30;99026.31;;;4.45;65.69
50105;BME280;47690;39.202;-77.198;2024-01-07T07:53:59;99035.66;;;4.46;65.93
50105;BME280;47690;39.202;-77.198;2024-01-07T07:56:30;99030.56;;;4.45;66.38
50105;BME280;47690;39.202;-77.198;2024-01-07T07:59:02;99028.03;;;4.45;65.84
50105;BME280;47690;39.202;-77.198;2024-01-07T08:01:33;99011.91;;;4.44;66.04
50105;BME280;47690;39.202;-77.198;2024-01-07T08:04:02;99016.13;;;4.42;65.70
50105;BME280;47690;39.202;-77.198;2024-01-07T08:06:33;99021.22;;;4.44;66.10
50105;BME280;47690;39.202;-77.198;2024-01-07T08:09:02;99028.88;;;4.42;65.97
50105;BME280;47690;39.202;-77.198;2024-01-07T08:11:31;99033.16;;;4.43;65.99
50105;BME280;47690;39.202;-77.198;2024-01-07T08:13:59;99041.72;;;4.36;65.80
50105;BME280;47690;39.202;-77.198;2024-01-07T08:16:30;99047.66;;;4.35;65.90
50105;BME280;47690;39.202;-77.198;2024-01-07T08:18:59;99048.50;;;4.34;65.58
50105;BME280;47690;39.202;-77.198;2024-01-07T08:21:30;99044.28;;;4.34;66.17
50105;BME280;47690;39.202;-77.198;2024-01-07T08:24:02;99030.66;;;4.34;66.55
50105;BME280;47690;39.202;-77.198;2024-01-07T08:26:32;99023.88;;;4.33;66.33
50105;BME280;47690;39.202;-77.198;2024-01-07T08:29:01;99022.09;;;4.41;66.30
50105;BME280;47690;39.202;-77.198;2024-01-07T08:31:31;99013.59;;;4.42;66.48
50105;BME280;47690;39.202;-77.198;2024-01-07T08:34:13;99017.03;;;4.38;66.06
50105;BME280;47690;39.202;-77.198;2024-01-07T08:36:56;99012.78;;;4.38;66.16
50105;BME280;47690;39.202;-77.198;2024-01-07T08:39:27;99007.66;;;4.43;65.76
50105;BME280;47690;39.202;-77.198;2024-01-07T08:42:01;98994.06;;;4.43;66.51
50105;BME280;47690;39.202;-77.198;2024-01-07T08:44:31;98994.91;;;4.42;65.83
50105;BME280;47690;39.202;-77.198;2024-01-07T08:47:00;98997.47;;;4.40;65.66
50105;BME280;47690;39.202;-77.198;2024-01-07T08:49:32;99011.91;;;4.41;66.13
50105;BME280;47690;39.202;-77.198;2024-01-07T08:52:03;99016.13;;;4.42;66.26
50105;BME280;47690;39.202;-77.198;2024-01-07T08:54:31;99023.78;;;4.42;65.80
50105;BME280;47690;39.202;-77.198;2024-01-07T08:57:02;99019.56;;;4.41;65.73
50105;BME280;47690;39.202;-77.198;2024-01-07T08:59:30;99016.13;;;4.42;66.01
50105;BME280;47690;39.202;-77.198;2024-01-07T09:01:59;99009.34;;;4.43;65.61
50105;BME280;47690;39.202;-77.198;2024-01-07T09:04:29;99011.03;;;4.44;65.58
50105;BME280;47690;39.202;-77.198;2024-01-07T09:06:58;99004.25;;;4.43;65.80
50105;BME280;47690;39.202;-77.198;2024-01-07T09:09:26;99006.78;;;4.44;65.67
50105;BME280;47690;39.202;-77.198;2024-01-07T09:11:59;99000.03;;;4.40;65.83
50105;BME280;47690;39.202;-77.198;2024-01-07T09:15:00;98996.53;;;4.49;66.01
50105;BME280;47690;39.202;-77.198;2024-01-07T09:17:29;98998.22;;;4.48;65.69
50105;BME280;47690;39.202;-77.198;2024-01-07T09:19:58;99005.03;;;4.49;66.43
50105;BME280;47690;39.202;-77.198;2024-01-07T09:22:28;98987.16;;;4.49;65.60
50105;BME280;47690;39.202;-77.198;2024-01-07T09:24:57;98982.94;;;4.48;65.62
50105;BME280;47690;39.202;-77.198;2024-01-07T09:27:30;98980.38;;;4.48;65.76
50105;BME280;47690;39.202;-77.198;2024-01-07T09:29:59;98978.69;;;4.47;65.89
50105;BME280;47690;39.202;-77.198;2024-01-07T09:32:29;98975.31;;;4.45;65.84
50105;BME280;47690;39.202;-77.198;2024-01-07T09:35:07;98970.22;;;4.45;66.70
50105;BME280;47690;39.202;-77.198;2024-01-07T09:37:37;98955.75;;;4.46;66.10
50105;BME280;47690;39.202;-77.198;2024-01-07T09:40:05;98946.41;;;4.46;66.22
50105;BME280;47690;39.202;-77.198;2024-01-07T09:42:37;98952.38;;;4.45;66.19
50105;BME280;47690;39.202;-77.198;2024-01-07T09:45:06;98945.56;;;4.46;65.97
50105;BME280;47690;39.202;-77.198;2024-01-07T09:47:35;98941.38;;;4.43;66.52
50105;BME280;47690;39.202;-77.198;2024-01-07T09:50:04;98943.03;;;4.44;66.75
50105;BME280;47690;39.202;-77.198;2024-01-07T09:52:33;98937.94;;;4.44;66.22
50105;BME280;47690;39.202;-77.198;2024-01-07T09:55:03;98942.19;;;4.45;66.75
50105;BME280;47690;39.202;-77.198;2024-01-07T09:57:33;98955.75;;;4.47;66.14
50105;BME280;47690;39.202;-77.198;2024-01-07T10:00:03;98955.75;;;4.49;66.58
50105;BME280;47690;39.202;-77.198;2024-01-07T10:02:39;98944.66;;;4.51;66.93
50105;BME280;47690;39.202;-77.198;2024-01-07T10:05:10;98954.81;;;4.55;66.82
50105;BME280;47690;39.202;-77.198;2024-01-07T10:07:38;98965.00;;;4.58;65.99
50105;BME280;47690;39.202;-77.198;2024-01-07T10:10:15;98970.94;;;4.57;66.46
50105;BME280;47690;39.202;-77.198;2024-01-07T10:12:45;98977.75;;;4.58;65.93
50105;BME280;47690;39.202;-77.198;2024-01-07T10:15:17;98987.09;;;4.56;66.53
50105;BME280;47690;39.202;-77.198;2024-01-07T10:17:47;98993.94;;;4.55;66.19
50105;BME280;47690;39.202;-77.198;2024-01-07T10:20:16;99009.25;;;4.52;66.25
50105;BME280;47690;39.202;-77.198;2024-01-07T10:22:51;99007.56;;;4.51;66.91
50105;BME280;47690;39.202;-77.198;2024-01-07T10:25:21;99005.88;;;4.48;66.72
50105;BME280;47690;39.202;-77.198;2024-01-07T10:27:50;98999.09;;;4.47;66.58
50105;BME280;47690;39.202;-77.198;2024-01-07T10:30:19;99001.66;;;4.47;66.04
50105;BME280;47690;39.202;-77.198;2024-01-07T10:32:55;99016.06;;;4.50;66.36
50105;BME280;47690;39.202;-77.198;2024-01-07T10:35:33;99011.84;;;4.50;67.20
50105;BME280;47690;39.202;-77.198;2024-01-07T10:38:06;99020.31;;;4.53;66.91
50105;BME280;47690;39.202;-77.198;2024-01-07T10:40:36;99016.03;;;4.53;66.43
50105;BME280;47690;39.202;-77.198;2024-01-07T10:43:06;99019.44;;;4.55;66.93
50105;BME280;47690;39.202;-77.198;2024-01-07T10:45:35;99027.06;;;4.57;66.66
50105;BME280;47690;39.202;-77.198;2024-01-07T10:48:06;99027.91;;;4.57;66.47
50105;BME280;47690;39.202;-77.198;2024-01-07T10:50:37;99034.69;;;4.60;66.70
50105;BME280;47690;39.202;-77.198;2024-01-07T10:53:08;99028.72;;;4.61;66.24
50105;BME280;47690;39.202;-77.198;2024-01-07T10:55:42;99032.97;;;4.62;66.42
50105;BME280;47690;39.202;-77.198;2024-01-07T10:58:17;99037.19;;;4.63;66.42
50105;BME280;47690;39.202;-77.198;2024-01-07T11:00:47;99033.78;;;4.64;66.53
50105;BME280;47690;39.202;-77.198;2024-01-07T11:03:25;99034.63;;;4.64;66.71
50105;BME280;47690;39.202;-77.198;2024-01-07T11:09:02;99026.97;;;4.66;66.54
50105;BME280;47690;39.202;-77.198;2024-01-07T11:11:40;99024.44;;;4.64;66.54
50105;BME280;47690;39.202;-77.198;2024-01-07T11:17:08;99030.41;;;4.60;66.62
50105;BME280;47690;39.202;-77.198;2024-01-07T11:19:38;99031.31;;;4.58;66.22
50105;BME280;47690;39.202;-77.198;2024-01-07T11:22:26;99043.22;;;4.56;66.71
50105;BME280;47690;39.202;-77.198;2024-01-07T11:25:01;99050.91;;;4.54;66.28
50105;BME280;47690;39.202;-77.198;2024-01-07T11:27:31;99057.75;;;4.50;66.33
50105;BME280;47690;39.202;-77.198;2024-01-07T11:30:05;99056.88;;;4.48;66.12
50105;BME280;47690;39.202;-77.198;2024-01-07T11:32:35;99065.41;;;4.47;65.79
50105;BME280;47690;39.202;-77.198;2024-01-07T11:35:06;99073.09;;;4.43;66.09
50105;BME280;47690;39.202;-77.198;2024-01-07T11:37:36;99068.00;;;4.43;66.56
50105;BME280;47690;39.202;-77.198;2024-01-07T11:40:06;99061.22;;;4.40;66.04
50105;BME280;47690;39.202;-77.198;2024-01-07T11:42:35;99068.03;;;4.38;66.05
50105;BME280;47690;39.202;-77.198;2024-01-07T11:45:04;99063.81;;;4.35;65.86
50105;BME280;47690;39.202;-77.198;2024-01-07T11:47:32;99067.22;;;4.34;65.77
50105;BME280;47690;39.202;-77.198;2024-01-07T11:50:01;99071.50;;;4.31;66.40
50105;BME280;47690;39.202;-77.198;2024-01-07T11:52:32;99075.75;;;4.32;65.94
50105;BME280;47690;39.202;-77.198;2024-01-07T11:55:04;99072.38;;;4.28;66.26
50105;BME280;47690;39.202;-77.198;2024-01-07T11:57:34;99084.28;;;4.26;66.59
50105;BME280;47690;39.202;-77.198;2024-01-07T12:00:02;99084.28;;;4.24;65.65
50105;BME280;47690;39.202;-77.198;2024-01-07T12:02:38;99096.22;;;4.22;66.24
50105;BME280;47690;39.202;-77.198;2024-01-07T12:05:07;99103.88;;;4.21;65.00
50105;BME280;47690;39.202;-77.198;2024-01-07T12:07:35;99103.03;;;4.17;64.95
50105;BME280;47690;39.202;-77.198;2024-01-07T12:10:08;99110.72;;;4.14;65.59
50105;BME280;47690;39.202;-77.198;2024-01-07T12:12:42;99115.00;;;4.10;65.07
50105;BME280;47690;39.202;-77.198;2024-01-07T12:15:12;99128.59;;;4.08;65.14
50105;BME280;47690;39.202;-77.198;2024-01-07T12:17:54;99134.56;;;4.05;65.71
50105;BME280;47690;39.202;-77.198;2024-01-07T12:20:27;99132.00;;;4.04;65.59
50105;BME280;47690;39.202;-77.198;2024-01-07T12:23:09;99137.97;;;4.03;65.87
50105;BME280;47690;39.202;-77.198;2024-01-07T12:25:38;99132.03;;;4.01;65.38
50105;BME280;47690;39.202;-77.198;2024-01-07T12:28:09;99140.56;;;4.00;65.49
50105;BME280;47690;39.202;-77.198;2024-01-07T12:30:38;99137.16;;;3.97;65.60
50105;BME280;47690;39.202;-77.198;2024-01-07T12:33:08;99141.41;;;3.97;65.22
50105;BME280;47690;39.202;-77.198;2024-01-07T12:35:36;99141.41;;;3.94;65.82
50105;BME280;47690;39.202;-77.198;2024-01-07T12:38:05;99134.66;;;3.88;65.31
50105;BME280;47690;39.202;-77.198;2024-01-07T12:40:33;99144.00;;;3.85;65.45
50105;BME280;47690;39.202;-77.198;2024-01-07T12:43:03;99143.19;;;3.81;65.38
50105;BME280;47690;39.202;-77.198;2024-01-07T12:45:37;99146.56;;;3.83;65.94
50105;BME280;47690;39.202;-77.198;2024-01-07T12:48:06;99151.69;;;3.80;65.04
50105;BME280;47690;39.202;-77.198;2024-01-07T12:50:36;99150.00;;;3.79;65.00
50105;BME280;47690;39.202;-77.198;2024-01-07T12:53:05;99155.94;;;3.78;65.68
50105;BME280;47690;39.202;-77.198;2024-01-07T12:55:33;99150.84;;;3.78;65.84
50105;BME280;47690;39.202;-77.198;2024-01-07T12:58:03;99155.09;;;3.80;65.49
50105;BME280;47690;39.202;-77.198;2024-01-07T13:00:32;99150.00;;;3.80;66.18
50105;BME280;47690;39.202;-77.198;2024-01-07T13:06:03;99155.03;;;3.88;65.68
50105;BME280;47690;39.202;-77.198;2024-01-07T13:08:33;99155.03;;;3.90;66.23
50105;BME280;47690;39.202;-77.198;2024-01-07T13:11:02;99156.72;;;3.91;65.51
50105;BME280;47690;39.202;-77.198;2024-01-07T13:13:32;99157.56;;;3.93;66.16
50105;BME280;47690;39.202;-77.198;2024-01-07T13:16:02;99160.09;;;3.94;66.37
50105;BME280;47690;39.202;-77.198;2024-01-07T13:18:31;99167.72;;;3.97;66.21
50105;BME280;47690;39.202;-77.198;2024-01-07T13:21:00;99167.72;;;3.99;66.95